Morrison, CO (80465)

7:37 AM MDT on March 31, 2015 (GMT -0600)
Lower Valley/Post Office | | Change Station
CLOSE
Current Station
Personal Weather Station
Location: Indian Hills, CO
Elevation: 6920 ft
Nearby Weather Stations

Elev 6920 ft 39.62 °N, 105.24 °W | Updated 11 seconds ago

Clear
Clear
29.1 °F
Feels Like 29 °F
N
0.0
Wind Variable Wind from West
Gusts 0.0 mph

Today
High -- | Low -- °F
--% Chance of Precip.
Yesterday
High -- | Low -- °F
Precip. -- in
6:47 AM 7:23 PM
Waxing Gibbous, 87% visible
Pressure 30.01 in
Visibility 10.0 miles
Clouds Few 14000 ft
Windchill 29 °F
Dew Point 19 °F
Humidity 66%
Rainfall 0.00 in
Snow Depth Not available.
UV 0 out of 12
Pollen 10.90 out of 12
Air Quality Not available.
Flu Activity Not available.
METAR KAPA 311253Z 15004KT 10SM FEW140 05/M06 A3010 RMK AO2 SLP163 T00501061

More Conditions Fewer Conditions

Pressure 30.01 in
Visibility 10.0 miles
Clouds Few 14000 ft
Windchill 29 °F
Dew Point 19 °F
Humidity 66%
Rainfall 0.00 in
Snow Depth Not available.
UV 0 out of 12
Pollen 10.90 out of 12
Air Quality Not available.
Flu Activity Not available.
METAR KAPA 311253Z 15004KT 10SM FEW140 05/M06 A3010 RMK AO2 SLP163 T00501061

More Conditions Fewer Conditions

10-Day Weather Forecast

Almanac

Astronomy

Mar. 31, 2015 Rise Set
Actual Time
Civil Twilight
Nautical Twilight
Astronomical Twilight
Moon
Length of Visible Light
Length of Day
Tomorrow will be .
, % of the Moon is Illuminated

Today's Extremes

State Highs State Lows

Community

WunderPhotos

Upload Photos

1,809,767 photos uploaded!

WunderBlogs® & News

Nearby

Air Quality

  Air Quality AQ Index Pollutant
Not available.

Snow Depth

Station Depth Elevation

Earthquake Activity

City Distance Mag. Time & Date
Minimum magnitude displayed is 2.5.

Coastal Water Temperatures

Place Temperature

Stations

Nearby Weather Stations

Station Location Temp. Windchill Dew Point Humidity Wind Precip. Elev Updated Type